sensor_id;sensor_type;location;lat;lon;timestamp;pressure;altitude;pressure_sealevel;temperature;humidity
19761;BME280;10039;42.632;23.408;2022-09-03T01:20:05;94942.50;;;19.24;75.47
19761;BME280;10039;42.632;23.408;2022-09-03T01:29:09;94953.03;;;19.22;75.13
19761;BME280;10039;42.632;23.408;2022-09-03T01:44:20;94973.38;;;18.80;76.03
19761;BME280;10039;42.632;23.408;2022-09-03T01:46:53;94964.50;;;18.79;75.66
19761;BME280;10039;42.632;23.408;2022-09-03T01:55:41;94974.06;;;18.89;75.21
19761;BME280;10039;42.632;23.408;2022-09-03T01:58:26;94936.97;;;18.66;75.56
19761;BME280;10039;42.632;23.408;2022-09-03T02:01:19;94968.72;;;18.80;75.48
19761;BME280;10039;42.632;23.408;2022-09-03T02:03:47;94932.78;;;18.65;75.61
19761;BME280;10039;42.632;23.408;2022-09-03T02:06:23;94932.91;;;18.71;75.45
19761;BME280;10039;42.632;23.408;2022-09-03T02:09:12;94964.09;;;18.95;74.94
19761;BME280;10039;42.632;23.408;2022-09-03T02:12:07;94915.34;;;18.66;74.80
19761;BME280;10039;42.632;23.408;2022-09-03T02:14:44;94933.56;;;18.80;74.80
19761;BME280;10039;42.632;23.408;2022-09-03T02:17:18;94925.59;;;18.62;75.04
19761;BME280;10039;42.632;23.408;2022-09-03T02:19:44;94960.59;;;18.80;74.99
19761;BME280;10039;42.632;23.408;2022-09-03T02:22:16;94932.50;;;18.63;74.65
19761;BME280;10039;42.632;23.408;2022-09-03T02:24:56;94948.00;;;18.77;74.70
19761;BME280;10039;42.632;23.408;2022-09-03T02:28:01;94978.34;;;18.96;74.68
19761;BME280;10039;42.632;23.408;2022-09-03T02:31:26;94957.50;;;18.73;74.86
19761;BME280;10039;42.632;23.408;2022-09-03T02:34:03;94950.78;;;18.68;74.72
19761;BME280;10039;42.632;23.408;2022-09-03T02:37:10;94955.59;;;18.64;74.63
19761;BME280;10039;42.632;23.408;2022-09-03T02:40:06;94984.22;;;18.80;75.23
19761;BME280;10039;42.632;23.408;2022-09-03T02:42:34;94939.53;;;18.46;74.90
19761;BME280;10039;42.632;23.408;2022-09-03T02:45:27;94963.34;;;18.57;75.29
19761;BME280;10039;42.632;23.408;2022-09-03T02:48:04;94989.84;;;18.67;74.66
19761;BME280;10039;42.632;23.408;2022-09-03T02:50:56;94942.88;;;18.41;75.15
19761;BME280;10039;42.632;23.408;2022-09-03T02:53:25;94944.94;;;18.46;75.47
19761;BME280;10039;42.632;23.408;2022-09-03T02:56:16;94962.31;;;18.54;75.15
19761;BME280;10039;42.632;23.408;2022-09-03T02:59:00;94979.31;;;18.69;74.83
19761;BME280;10039;42.632;23.408;2022-09-03T03:01:32;94965.00;;;18.54;74.55
19761;BME280;10039;42.632;23.408;2022-09-03T03:04:02;94979.69;;;18.62;74.50
19761;BME280;10039;42.632;23.408;2022-09-03T03:06:36;94998.38;;;18.75;74.24
19761;BME280;10039;42.632;23.408;2022-09-03T03:09:14;94957.94;;;18.57;74.16
19761;BME280;10039;42.632;23.408;2022-09-03T03:12:10;94959.81;;;18.65;74.14
19761;BME280;10039;42.632;23.408;2022-09-03T03:14:56;94969.03;;;18.59;74.04
19761;BME280;10039;42.632;23.408;2022-09-03T03:20:33;94961.41;;;18.57;73.81
19761;BME280;10039;42.632;23.408;2022-09-03T03:23:13;94957.47;;;18.58;74.11
19761;BME280;10039;42.632;23.408;2022-09-03T03:25:39;94959.81;;;18.65;73.99
19761;BME280;10039;42.632;23.408;2022-09-03T03:28:19;94973.19;;;18.83;74.00
19761;BME280;10039;42.632;23.408;2022-09-03T03:30:45;94974.69;;;18.84;73.63
19761;BME280;10039;42.632;23.408;2022-09-03T03:33:18;94946.84;;;18.69;73.59
19761;BME280;10039;42.632;23.408;2022-09-03T03:36:00;94957.34;;;18.53;73.54
19761;BME280;10039;42.632;23.408;2022-09-03T03:38:31;94957.78;;;18.60;73.70
19761;BME280;10039;42.632;23.408;2022-09-03T03:40:56;94951.84;;;18.47;73.76
19761;BME280;10039;42.632;23.408;2022-09-03T03:43:22;94955.78;;;18.61;73.31
19761;BME280;10039;42.632;23.408;2022-09-03T03:45:58;94952.66;;;18.62;73.48
19761;BME280;10039;42.632;23.408;2022-09-03T03:48:27;94955.44;;;18.68;73.12
19761;BME280;10039;42.632;23.408;2022-09-03T03:50:53;94976.84;;;18.80;73.47
19761;BME280;10039;42.632;23.408;2022-09-03T03:53:19;94960.47;;;18.60;73.84
19761;BME280;10039;42.632;23.408;2022-09-03T03:56:02;95008.81;;;18.82;73.69
19761;BME280;10039;42.632;23.408;2022-09-03T03:58:29;94959.47;;;18.49;73.45
19761;BME280;10039;42.632;23.408;2022-09-03T04:01:06;94983.31;;;18.59;74.06
19761;BME280;10039;42.632;23.408;2022-09-03T04:03:34;94993.31;;;18.68;74.21
19761;BME280;10039;42.632;23.408;2022-09-03T04:05:59;94970.06;;;18.61;73.86
19761;BME280;10039;42.632;23.408;2022-09-03T04:08:26;94992.38;;;18.71;73.74
19761;BME280;10039;42.632;23.408;2022-09-03T04:10:52;94988.19;;;18.70;73.83
19761;BME280;10039;42.632;23.408;2022-09-03T04:13:18;94955.34;;;18.62;73.71
19761;BME280;10039;42.632;23.408;2022-09-03T04:15:44;94973.81;;;18.64;73.66
19761;BME280;10039;42.632;23.408;2022-09-03T04:18:10;94971.84;;;18.64;73.53
19761;BME280;10039;42.632;23.408;2022-09-03T04:20:37;94980.06;;;18.70;73.81
19761;BME280;10039;42.632;23.408;2022-09-03T04:23:04;94999.72;;;18.94;73.71
19761;BME280;10039;42.632;23.408;2022-09-03T04:25:30;94977.31;;;18.79;73.40
19761;BME280;10039;42.632;23.408;2022-09-03T04:27:58;94967.97;;;18.80;73.52
19761;BME280;10039;42.632;23.408;2022-09-03T04:30:24;94979.47;;;18.89;73.07
19761;BME280;10039;42.632;23.408;2022-09-03T04:32:52;94982.19;;;18.89;72.71
19761;BME280;10039;42.632;23.408;2022-09-03T04:35:22;94986.47;;;18.96;73.24
19761;BME280;10039;42.632;23.408;2022-09-03T04:37:50;94990.19;;;18.98;72.91
19761;BME280;10039;42.632;23.408;2022-09-03T04:40:22;94973.38;;;18.80;73.11
19761;BME280;10039;42.632;23.408;2022-09-03T04:42:48;94996.91;;;18.88;73.22
19761;BME280;10039;42.632;23.408;2022-09-03T04:45:21;95018.69;;;19.08;73.08
19761;BME280;10039;42.632;23.408;2022-09-03T04:47:59;94981.03;;;18.81;72.96
19761;BME280;10039;42.632;23.408;2022-09-03T04:50:25;94981.88;;;18.87;72.99
19761;BME280;10039;42.632;23.408;2022-09-03T04:52:53;94990.06;;;18.78;73.13
19761;BME280;10039;42.632;23.408;2022-09-03T04:55:21;95026.22;;;19.04;72.97
19761;BME280;10039;42.632;23.408;2022-09-03T04:57:47;94988.63;;;18.68;73.22
19761;BME280;10039;42.632;23.408;2022-09-03T05:00:13;95013.00;;;18.83;73.67
19761;BME280;10039;42.632;23.408;2022-09-03T05:02:45;95009.63;;;18.73;73.27
19761;BME280;10039;42.632;23.408;2022-09-03T05:05:16;95025.22;;;18.78;73.49
19761;BME280;10039;42.632;23.408;2022-09-03T05:07:45;95038.69;;;18.87;73.95
19761;BME280;10039;42.632;23.408;2022-09-03T05:10:29;95064.63;;;18.94;73.54
19761;BME280;10039;42.632;23.408;2022-09-03T05:13:04;95022.19;;;18.62;73.83
19761;BME280;10039;42.632;23.408;2022-09-03T05:15:36;95020.72;;;18.52;73.51
19761;BME280;10039;42.632;23.408;2022-09-03T05:18:04;95016.38;;;18.54;73.71
19761;BME280;10039;42.632;23.408;2022-09-03T05:20:34;95016.53;;;18.51;73.50
19761;BME280;10039;42.632;23.408;2022-09-03T05:23:04;95041.94;;;18.77;74.10
19761;BME280;10039;42.632;23.408;2022-09-03T05:25:31;95023.19;;;18.64;73.78
19761;BME280;10039;42.632;23.408;2022-09-03T05:27:57;95062.13;;;18.67;74.15
19761;BME280;10039;42.632;23.408;2022-09-03T05:30:23;95039.53;;;18.46;74.27
19761;BME280;10039;42.632;23.408;2022-09-03T05:32:50;95013.94;;;18.33;73.91
19761;BME280;10039;42.632;23.408;2022-09-03T05:35:20;95048.25;;;18.50;74.03
19761;BME280;10039;42.632;23.408;2022-09-03T05:37:46;95010.47;;;18.32;73.80
19761;BME280;10039;42.632;23.408;2022-09-03T05:40:12;95067.41;;;18.61;74.23
19761;BME280;10039;42.632;23.408;2022-09-03T05:42:41;95032.09;;;18.32;74.39
19761;BME280;10039;42.632;23.408;2022-09-03T05:45:08;95075.53;;;18.61;74.50
19761;BME280;10039;42.632;23.408;2022-09-03T05:47:36;95036.16;;;18.37;74.51
19761;BME280;10039;42.632;23.408;2022-09-03T05:50:02;95045.13;;;18.43;74.73
19761;BME280;10039;42.632;23.408;2022-09-03T05:52:28;95043.00;;;18.47;74.35
19761;BME280;10039;42.632;23.408;2022-09-03T05:54:53;95069.25;;;18.55;73.99
19761;BME280;10039;42.632;23.408;2022-09-03T05:57:19;95057.03;;;18.60;73.57
19761;BME280;10039;42.632;23.408;2022-09-03T05:59:45;95042.66;;;18.54;74.20
19761;BME280;10039;42.632;23.408;2022-09-03T06:02:10;95038.88;;;18.60;73.61
19761;BME280;10039;42.632;23.408;2022-09-03T06:04:36;95064.91;;;18.72;73.16
19761;BME280;10039;42.632;23.408;2022-09-03T06:07:05;95083.13;;;18.95;73.49
19761;BME280;10039;42.632;23.408;2022-09-03T06:09:33;95040.09;;;18.59;72.90
19761;BME280;10039;42.632;23.408;2022-09-03T06:11:59;95070.19;;;18.76;73.21
19761;BME280;10039;42.632;23.408;2022-09-03T06:14:24;95055.78;;;18.70;73.18
19761;BME280;10039;42.632;23.408;2022-09-03T06:16:53;95070.13;;;18.61;73.17
19761;BME280;10039;42.632;23.408;2022-09-03T06:19:21;95080.81;;;18.79;73.42
19761;BME280;10039;42.632;23.408;2022-09-03T06:21:46;95050.25;;;18.64;73.86
19761;BME280;10039;42.632;23.408;2022-09-03T06:24:17;95060.72;;;18.71;73.29
19761;BME280;10039;42.632;23.408;2022-09-03T06:26:43;95060.34;;;18.87;73.34
19761;BME280;10039;42.632;23.408;2022-09-03T06:29:10;95076.38;;;18.91;72.78
19761;BME280;10039;42.632;23.408;2022-09-03T06:31:36;95085.47;;;19.02;72.64
19761;BME280;10039;42.632;23.408;2022-09-03T06:34:02;95092.03;;;19.10;72.98
19761;BME280;10039;42.632;23.408;2022-09-03T06:36:27;95055.84;;;18.84;71.94
19761;BME280;10039;42.632;23.408;2022-09-03T06:38:55;95104.31;;;19.20;72.01
19761;BME280;10039;42.632;23.408;2022-09-03T06:41:23;95067.16;;;18.97;71.87
19761;BME280;10039;42.632;23.408;2022-09-03T06:43:51;95046.81;;;18.87;71.93
19761;BME280;10039;42.632;23.408;2022-09-03T06:46:22;95070.66;;;19.12;72.61
19761;BME280;10039;42.632;23.408;2022-09-03T06:48:48;95064.94;;;19.19;72.83
19761;BME280;10039;42.632;23.408;2022-09-03T06:51:20;95056.25;;;19.15;71.17
19761;BME280;10039;42.632;23.408;2022-09-03T06:53:50;95087.16;;;19.23;70.39
19761;BME280;10039;42.632;23.408;2022-09-03T06:56:18;95063.47;;;19.09;71.51
19761;BME280;10039;42.632;23.408;2022-09-03T06:58:46;95061.88;;;18.79;70.23
19761;BME280;10039;42.632;23.408;2022-09-03T07:01:18;95087.03;;;18.94;70.68
19761;BME280;10039;42.632;23.408;2022-09-03T07:03:47;95079.56;;;18.89;71.44
19761;BME280;10039;42.632;23.408;2022-09-03T07:06:15;95098.06;;;19.05;72.52
19761;BME280;10039;42.632;23.408;2022-09-03T07:08:41;95101.72;;;19.25;72.87
19761;BME280;10039;42.632;23.408;2022-09-03T07:11:18;95070.09;;;19.08;70.55
19761;BME280;10039;42.632;23.408;2022-09-03T07:13:47;95089.44;;;19.16;71.06
19761;BME280;10039;42.632;23.408;2022-09-03T07:18:43;95091.78;;;18.99;71.95
19761;BME280;10039;42.632;23.408;2022-09-03T07:21:14;95074.78;;;18.84;72.00
19761;BME280;10039;42.632;23.408;2022-09-03T07:23:41;95068.69;;;18.75;72.05
19761;BME280;10039;42.632;23.408;2022-09-03T07:26:16;95094.09;;;18.92;72.73
19761;BME280;10039;42.632;23.408;2022-09-03T07:28:43;95094.81;;;18.78;72.32
19761;BME280;10039;42.632;23.408;2022-09-03T07:31:18;95120.63;;;19.02;73.28
19761;BME280;10039;42.632;23.408;2022-09-03T07:33:46;95113.00;;;19.24;72.85
19761;BME280;10039;42.632;23.408;2022-09-03T07:36:14;95097.41;;;19.19;72.50
19761;BME280;10039;42.632;23.408;2022-09-03T07:38:41;95110.84;;;19.66;71.89
19761;BME280;10039;42.632;23.408;2022-09-03T07:41:12;95078.81;;;19.50;70.80
19761;BME280;10039;42.632;23.408;2022-09-03T07:43:45;95094.94;;;19.44;70.50
19761;BME280;10039;42.632;23.408;2022-09-03T07:46:15;95122.69;;;19.54;70.98
19761;BME280;10039;42.632;23.408;2022-09-03T07:48:45;95125.69;;;19.56;70.56
19761;BME280;10039;42.632;23.408;2022-09-03T07:51:11;95124.41;;;19.80;70.97
19761;BME280;10039;42.632;23.408;2022-09-03T07:53:37;95136.16;;;19.92;69.44
19761;BME280;10039;42.632;23.408;2022-09-03T07:56:09;95106.34;;;19.63;69.42
19761;BME280;10039;42.632;23.408;2022-09-03T07:58:36;95093.91;;;19.42;69.83
19761;BME280;10039;42.632;23.408;2022-09-03T08:01:10;95111.16;;;19.44;70.66
19761;BME280;10039;42.632;23.408;2022-09-03T08:03:37;95129.97;;;19.48;69.51
19761;BME280;10039;42.632;23.408;2022-09-03T08:06:05;95132.06;;;19.67;69.98
19761;BME280;10039;42.632;23.408;2022-09-03T08:08:32;95129.78;;;19.66;70.28
19761;BME280;10039;42.632;23.408;2022-09-03T08:13:38;95121.69;;;19.80;70.12
19761;BME280;10039;42.632;23.408;2022-09-03T08:16:05;95111.00;;;20.00;68.40
19761;BME280;10039;42.632;23.408;2022-09-03T08:18:33;95120.13;;;20.03;67.38
19761;BME280;10039;42.632;23.408;2022-09-03T08:21:04;95114.44;;;20.01;67.92
19761;BME280;10039;42.632;23.408;2022-09-03T08:23:33;95138.44;;;20.36;69.31
19761;BME280;10039;42.632;23.408;2022-09-03T08:26:01;95102.91;;;20.34;69.21
19761;BME280;10039;42.632;23.408;2022-09-03T08:28:27;95092.72;;;20.30;67.30
19761;BME280;10039;42.632;23.408;2022-09-03T08:30:54;95113.97;;;20.31;67.52
19761;BME280;10039;42.632;23.408;2022-09-03T08:33:20;95105.72;;;20.26;67.01
19761;BME280;10039;42.632;23.408;2022-09-03T08:36:22;95131.50;;;20.50;67.38
19761;BME280;10039;42.632;23.408;2022-09-03T08:38:50;95103.69;;;20.35;67.29
19761;BME280;10039;42.632;23.408;2022-09-03T08:44:33;95108.66;;;20.56;67.56
19761;BME280;10039;42.632;23.408;2022-09-03T08:47:22;95112.16;;;20.91;66.02
19761;BME280;10039;42.632;23.408;2022-09-03T08:54:51;95104.63;;;20.66;65.83
19761;BME280;10039;42.632;23.408;2022-09-03T08:57:20;95126.56;;;21.17;66.51
19761;BME280;10039;42.632;23.408;2022-09-03T08:59:48;95134.59;;;21.46;65.66
19761;BME280;10039;42.632;23.408;2022-09-03T09:08:19;95141.69;;;22.09;63.77
19761;BME280;10039;42.632;23.408;2022-09-03T09:11:01;95115.34;;;21.95;64.13
19761;BME280;10039;42.632;23.408;2022-09-03T09:13:39;95135.88;;;22.21;62.91
19761;BME280;10039;42.632;23.408;2022-09-03T09:16:32;95135.22;;;22.32;63.09
19761;BME280;10039;42.632;23.408;2022-09-03T09:19:05;95134.41;;;22.51;63.56
19761;BME280;10039;42.632;23.408;2022-09-03T09:21:48;95135.00;;;22.66;62.90
19761;BME280;10039;42.632;23.408;2022-09-03T09:24:23;95093.56;;;22.46;61.57
19761;BME280;10039;42.632;23.408;2022-09-03T09:26:59;95145.75;;;22.80;62.30
19761;BME280;10039;42.632;23.408;2022-09-03T09:29:31;95140.56;;;22.82;62.33
19761;BME280;10039;42.632;23.408;2022-09-03T09:31:57;95138.19;;;22.95;62.16
19761;BME280;10039;42.632;23.408;2022-09-03T09:34:23;95137.91;;;22.93;61.90
19761;BME280;10039;42.632;23.408;2022-09-03T09:36:52;95133.72;;;22.98;62.13
19761;BME280;10039;42.632;23.408;2022-09-03T09:39:18;95103.63;;;22.70;60.46
19761;BME280;10039;42.632;23.408;2022-09-03T09:44:24;95096.16;;;22.66;61.92
19761;BME280;10039;42.632;23.408;2022-09-03T09:46:50;95114.13;;;22.88;60.49
19761;BME280;10039;42.632;23.408;2022-09-03T09:49:30;95139.56;;;23.16;60.81
19761;BME280;10039;42.632;23.408;2022-09-03T09:52:13;95141.28;;;23.14;61.19
19761;BME280;10039;42.632;23.408;2022-09-03T09:54:41;95119.13;;;22.95;59.76
19761;BME280;10039;42.632;23.408;2022-09-03T09:57:17;95140.34;;;23.22;60.68
19761;BME280;10039;42.632;23.408;2022-09-03T09:59:43;95106.22;;;22.90;60.34
19761;BME280;10039;42.632;23.408;2022-09-03T10:02:13;95117.34;;;22.87;60.53
19761;BME280;10039;42.632;23.408;2022-09-03T10:04:39;95116.19;;;23.04;61.21
19761;BME280;10039;42.632;23.408;2022-09-03T10:07:20;95146.63;;;23.39;60.38
19761;BME280;10039;42.632;23.408;2022-09-03T10:10:20;95116.91;;;23.47;59.92
19761;BME280;10039;42.632;23.408;2022-09-03T10:13:11;95122.63;;;23.49;59.71
19761;BME280;10039;42.632;23.408;2022-09-03T10:15:45;95140.28;;;23.70;60.27
19761;BME280;10039;42.632;23.408;2022-09-03T10:26:22;95080.28;;;23.75;59.05
19761;BME280;10039;42.632;23.408;2022-09-03T10:28:59;95114.13;;;24.05;58.65
19761;BME280;10039;42.632;23.408;2022-09-03T10:34:46;95087.81;;;24.02;58.69
19761;BME280;10039;42.632;23.408;2022-09-03T10:37:15;95130.47;;;24.16;58.39
19761;BME280;10039;42.632;23.408;2022-09-03T10:39:57;95100.47;;;23.88;59.18
19761;BME280;10039;42.632;23.408;2022-09-03T10:45:53;95124.03;;;23.97;58.16
19761;BME280;10039;42.632;23.408;2022-09-03T10:51:31;95123.53;;;24.04;58.79
19761;BME280;10039;42.632;23.408;2022-09-03T10:59:22;95121.78;;;23.95;58.28
19761;BME280;10039;42.632;23.408;2022-09-03T11:02:10;95132.97;;;24.03;58.20
19761;BME280;10039;42.632;23.408;2022-09-03T11:04:45;95122.06;;;24.03;58.09
19761;BME280;10039;42.632;23.408;2022-09-03T11:07:20;95091.78;;;23.90;57.66
19761;BME280;10039;42.632;23.408;2022-09-03T11:09:56;95069.94;;;23.79;57.88
19761;BME280;10039;42.632;23.408;2022-09-03T11:12:40;95091.00;;;23.84;58.38
19761;BME280;10039;42.632;23.408;2022-09-03T11:15:21;95125.03;;;24.05;58.55
19761;BME280;10039;42.632;23.408;2022-09-03T11:17:58;95112.34;;;23.96;57.39
19761;BME280;10039;42.632;23.408;2022-09-03T11:20:26;95100.97;;;23.98;57.98
19761;BME280;10039;42.632;23.408;2022-09-03T11:22:56;95125.78;;;24.22;57.41
19761;BME280;10039;42.632;23.408;2022-09-03T11:25:28;95082.34;;;23.86;57.66
19761;BME280;10039;42.632;23.408;2022-09-03T11:33:07;95101.69;;;23.93;56.41
19761;BME280;10039;42.632;23.408;2022-09-03T11:35:53;95099.69;;;23.88;55.98
19761;BME280;10039;42.632;23.408;2022-09-03T11:38:28;95121.53;;;23.99;57.16
19761;BME280;10039;42.632;23.408;2022-09-03T11:41:23;95122.97;;;23.78;57.18
19761;BME280;10039;42.632;23.408;2022-09-03T11:43:51;95087.19;;;23.54;56.70
19761;BME280;10039;42.632;23.408;2022-09-03T11:48:54;95101.13;;;23.67;57.49
19761;BME280;10039;42.632;23.408;2022-09-03T11:54:00;95100.69;;;23.85;55.80
19761;BME280;10039;42.632;23.408;2022-09-03T11:56:30;95122.69;;;23.71;55.59
19761;BME280;10039;42.632;23.408;2022-09-03T12:01:48;95094.47;;;23.15;55.55
19761;BME280;10039;42.632;23.408;2022-09-03T12:04:22;95118.34;;;23.31;56.27
19761;BME280;10039;42.632;23.408;2022-09-03T12:07:52;95109.91;;;23.29;56.87
19761;BME280;10039;42.632;23.408;2022-09-03T12:18:40;95100.44;;;23.19;56.98
19761;BME280;10039;42.632;23.408;2022-09-03T12:21:08;95078.38;;;23.12;56.88
19761;BME280;10039;42.632;23.408;2022-09-03T12:23:45;95062.50;;;23.10;57.44
19761;BME280;10039;42.632;23.408;2022-09-03T12:26:18;95041.22;;;23.09;57.53
19761;BME280;10039;42.632;23.408;2022-09-03T12:28:47;95094.84;;;23.45;57.37
19761;BME280;10039;42.632;23.408;2022-09-03T12:31:19;95092.13;;;23.39;57.03
19761;BME280;10039;42.632;23.408;2022-09-03T12:33:55;95048.16;;;23.15;57.39
19761;BME280;10039;42.632;23.408;2022-09-03T12:36:24;95069.50;;;23.22;57.59
19761;BME280;10039;42.632;23.408;2022-09-03T12:38:50;95102.75;;;23.37;56.33
19761;BME280;10039;42.632;23.408;2022-09-03T12:41:28;95071.00;;;23.23;55.71
19761;BME280;10039;42.632;23.408;2022-09-03T12:43:57;95102.25;;;23.33;54.92
19761;BME280;10039;42.632;23.408;2022-09-03T12:46:29;95073.97;;;23.25;55.78
19761;BME280;10039;42.632;23.408;2022-09-03T12:48:59;95099.53;;;23.39;56.13
19761;BME280;10039;42.632;23.408;2022-09-03T12:51:41;95079.50;;;23.47;56.97
19761;BME280;10039;42.632;23.408;2022-09-03T12:54:11;95084.44;;;23.43;56.50
19761;BME280;10039;42.632;23.408;2022-09-03T12:56:53;95077.72;;;23.33;56.49
19761;BME280;10039;42.632;23.408;2022-09-03T12:59:21;95045.94;;;23.08;57.41
19761;BME280;10039;42.632;23.408;2022-09-03T13:01:53;95042.16;;;23.00;56.41
19761;BME280;10039;42.632;23.408;2022-09-03T13:04:25;95080.41;;;23.22;57.21
19761;BME280;10039;42.632;23.408;2022-09-03T13:07:10;95062.44;;;22.99;57.04
19761;BME280;10039;42.632;23.408;2022-09-03T13:09:40;95070.91;;;23.07;57.39
19761;BME280;10039;42.632;23.408;2022-09-03T13:12:07;95062.00;;;23.06;57.57
19761;BME280;10039;42.632;23.408;2022-09-03T13:14:46;95064.31;;;23.24;57.03
19761;BME280;10039;42.632;23.408;2022-09-03T13:20:33;95051.47;;;23.30;55.99
19761;BME280;10039;42.632;23.408;2022-09-03T13:31:35;95038.59;;;23.36;55.96
19761;BME280;10039;42.632;23.408;2022-09-03T13:34:21;95054.44;;;23.43;56.28
19761;BME280;10039;42.632;23.408;2022-09-03T13:36:54;95047.50;;;23.42;54.94
19761;BME280;10039;42.632;23.408;2022-09-03T13:39:34;95050.00;;;23.40;54.18
19761;BME280;10039;42.632;23.408;2022-09-03T13:42:18;95047.25;;;23.35;54.19
19761;BME280;10039;42.632;23.408;2022-09-03T13:45:15;95048.44;;;23.17;54.06
19761;BME280;10039;42.632;23.408;2022-09-03T13:47:50;95037.53;;;23.12;55.56
19761;BME280;10039;42.632;23.408;2022-09-03T13:51:02;95031.78;;;23.04;56.13
19761;BME280;10039;42.632;23.408;2022-09-03T13:59:50;95049.75;;;23.38;56.07
19761;BME280;10039;42.632;23.408;2022-09-03T14:02:52;95051.00;;;23.37;55.40
19761;BME280;10039;42.632;23.408;2022-09-03T14:05:33;95018.47;;;23.12;56.25
19761;BME280;10039;42.632;23.408;2022-09-03T14:08:31;95044.72;;;23.15;56.04
19761;BME280;10039;42.632;23.408;2022-09-03T14:11:04;95054.44;;;23.32;56.12
19761;BME280;10039;42.632;23.408;2022-09-03T14:14:01;95054.38;;;23.16;55.64
19761;BME280;10039;42.632;23.408;2022-09-03T14:19:21;95050.94;;;23.26;55.80
19761;BME280;10039;42.632;23.408;2022-09-03T14:22:10;95034.09;;;23.28;55.12
19761;BME280;10039;42.632;23.408;2022-09-03T14:24:54;95044.78;;;23.37;54.72
19761;BME280;10039;42.632;23.408;2022-09-03T14:27:24;95068.59;;;23.42;53.70
19761;BME280;10039;42.632;23.408;2022-09-03T14:30:18;95038.28;;;23.18;53.91
19761;BME280;10039;42.632;23.408;2022-09-03T14:38:10;95062.66;;;23.54;53.79
19761;BME280;10039;42.632;23.408;2022-09-03T14:52:46;95055.25;;;23.60;55.14
19761;BME280;10039;42.632;23.408;2022-09-03T15:00:33;95011.13;;;23.51;54.85
19761;BME280;10039;42.632;23.408;2022-09-03T15:11:30;95036.13;;;23.49;58.46
19761;BME280;10039;42.632;23.408;2022-09-03T15:14:13;95055.28;;;23.71;59.06
19761;BME280;10039;42.632;23.408;2022-09-03T15:16:47;95066.16;;;23.66;59.18
19761;BME280;10039;42.632;23.408;2022-09-03T15:24:55;95048.72;;;23.30;58.62
19761;BME280;10039;42.632;23.408;2022-09-03T15:27:30;95068.13;;;23.49;59.71
19761;BME280;10039;42.632;23.408;2022-09-03T15:30:06;95070.34;;;23.50;60.21
19761;BME280;10039;42.632;23.408;2022-09-03T15:38:01;95058.59;;;23.22;60.39
19761;BME280;10039;42.632;23.408;2022-09-03T15:40:33;95072.03;;;23.37;60.06
19761;BME280;10039;42.632;23.408;2022-09-03T15:43:09;95095.31;;;23.32;60.75
19761;BME280;10039;42.632;23.408;2022-09-03T15:57:01;95081.97;;;22.92;61.42
19761;BME280;10039;42.632;23.408;2022-09-03T15:59:40;95073.03;;;22.86;61.63
19761;BME280;10039;42.632;23.408;2022-09-03T16:02:14;95079.47;;;22.89;61.25
19761;BME280;10039;42.632;23.408;2022-09-03T16:15:16;95106.28;;;22.65;62.69
19761;BME280;10039;42.632;23.408;2022-09-03T16:17:53;95105.03;;;22.61;62.33
19761;BME280;10039;42.632;23.408;2022-09-03T16:20:37;95089.38;;;22.50;62.11
19761;BME280;10039;42.632;23.408;2022-09-03T16:23:20;95126.09;;;22.66;62.03
19761;BME280;10039;42.632;23.408;2022-09-03T16:25:54;95122.63;;;22.65;62.35
19761;BME280;10039;42.632;23.408;2022-09-03T16:28:32;95097.41;;;22.34;62.25
19761;BME280;10039;42.632;23.408;2022-09-03T16:31:08;95135.13;;;22.46;62.39
19761;BME280;10039;42.632;23.408;2022-09-03T16:39:21;95147.59;;;22.33;62.92
19761;BME280;10039;42.632;23.408;2022-09-03T16:44:45;95155.09;;;22.18;63.26
19761;BME280;10039;42.632;23.408;2022-09-03T16:47:46;95147.47;;;22.22;63.20
19761;BME280;10039;42.632;23.408;2022-09-03T16:50:33;95114.28;;;21.87;62.97
19761;BME280;10039;42.632;23.408;2022-09-03T16:53:23;95130.59;;;21.87;63.15
19761;BME280;10039;42.632;23.408;2022-09-03T17:01:29;95152.09;;;22.10;63.27
19761;BME280;10039;42.632;23.408;2022-09-03T17:06:46;95126.28;;;21.75;63.43
19761;BME280;10039;42.632;23.408;2022-09-03T17:09:28;95165.03;;;21.95;63.53
19761;BME280;10039;42.632;23.408;2022-09-03T17:12:22;95175.56;;;22.08;63.83
19761;BME280;10039;42.632;23.408;2022-09-03T17:26:11;95166.56;;;21.56;63.98
19761;BME280;10039;42.632;23.408;2022-09-03T17:29:05;95180.50;;;21.64;64.00
19761;BME280;10039;42.632;23.408;2022-09-03T17:40:54;95214.16;;;21.52;64.89
19761;BME280;10039;42.632;23.408;2022-09-03T17:43:32;95206.56;;;21.36;65.04
19761;BME280;10039;42.632;23.408;2022-09-03T17:46:19;95211.59;;;21.43;65.43
19761;BME280;10039;42.632;23.408;2022-09-03T17:48:54;95180.88;;;21.17;65.06
19761;BME280;10039;42.632;23.408;2022-09-03T17:56:57;95216.53;;;21.25;65.25
19761;BME280;10039;42.632;23.408;2022-09-03T18:05:57;95241.69;;;21.25;65.07
19761;BME280;10039;42.632;23.408;2022-09-03T18:08:35;95222.09;;;21.01;65.03
19761;BME280;10039;42.632;23.408;2022-09-03T18:11:11;95210.13;;;20.93;65.56
19761;BME280;10039;42.632;23.408;2022-09-03T18:13:49;95253.22;;;21.20;65.53
19761;BME280;10039;42.632;23.408;2022-09-03T18:16:32;95214.28;;;20.89;65.73
19761;BME280;10039;42.632;23.408;2022-09-03T18:21:56;95221.47;;;20.77;66.14
19761;BME280;10039;42.632;23.408;2022-09-03T18:24:52;95223.63;;;20.73;66.01
19761;BME280;10039;42.632;23.408;2022-09-03T18:30:24;95238.31;;;20.67;66.41
19761;BME280;10039;42.632;23.408;2022-09-03T18:33:08;95246.91;;;20.65;66.91
19761;BME280;10039;42.632;23.408;2022-09-03T18:35:59;95225.22;;;20.36;67.42
19761;BME280;10039;42.632;23.408;2022-09-03T18:38:43;95250.09;;;20.49;67.44
19761;BME280;10039;42.632;23.408;2022-09-03T18:47:42;95274.03;;;20.51;67.76